sensor_id;sensor_type;location;lat;lon;timestamp;pressure;altitude;pressure_sealevel;temperature;humidity
75717;BME280;64333;50.138;14.332;2022-12-29T00:01:27;97834.28;;;6.39;68.70
75717;BME280;64333;50.138;14.332;2022-12-29T00:03:52;97844.34;;;6.45;68.56
75717;BME280;64333;50.138;14.332;2022-12-29T00:06:17;97829.84;;;6.44;68.51
75717;BME280;64333;50.138;14.332;2022-12-29T00:08:43;97830.47;;;6.50;68.05
75717;BME280;64333;50.138;14.332;2022-12-29T00:11:10;97822.69;;;6.53;68.02
75717;BME280;64333;50.138;14.332;2022-12-29T00:13:36;97820.06;;;6.55;67.76
75717;BME280;64333;50.138;14.332;2022-12-29T00:16:20;97815.66;;;6.58;67.67
75717;BME280;64333;50.138;14.332;2022-12-29T00:18:45;97812.59;;;6.49;67.47
75717;BME280;64333;50.138;14.332;2022-12-29T00:21:15;97812.28;;;6.56;67.61
75717;BME280;64333;50.138;14.332;2022-12-29T00:24:00;97811.47;;;6.56;67.55
75717;BME280;64333;50.138;14.332;2022-12-29T00:26:43;97814.13;;;6.53;67.78
75717;BME280;64333;50.138;14.332;2022-12-29T00:29:28;97795.53;;;6.48;67.63
75717;BME280;64333;50.138;14.332;2022-12-29T00:32:12;97801.94;;;6.59;67.25
75717;BME280;64333;50.138;14.332;2022-12-29T00:34:56;97804.50;;;6.59;67.04
75717;BME280;64333;50.138;14.332;2022-12-29T00:37:34;97802.66;;;6.63;66.73
75717;BME280;64333;50.138;14.332;2022-12-29T00:40:19;97801.00;;;6.62;66.93
75717;BME280;64333;50.138;14.332;2022-12-29T00:43:03;97802.53;;;6.66;66.98
75717;BME280;64333;50.138;14.332;2022-12-29T00:45:46;97797.53;;;6.63;67.05
75717;BME280;64333;50.138;14.332;2022-12-29T00:48:12;97800.09;;;6.63;67.14
75717;BME280;64333;50.138;14.332;2022-12-29T00:50:37;97804.38;;;6.62;67.09
75717;BME280;64333;50.138;14.332;2022-12-29T00:53:02;97799.06;;;6.67;67.09
75717;BME280;64333;50.138;14.332;2022-12-29T00:55:28;97792.06;;;6.72;66.14
75717;BME280;64333;50.138;14.332;2022-12-29T00:57:53;97795.91;;;6.83;65.58
75717;BME280;64333;50.138;14.332;2022-12-29T01:00:18;97789.72;;;6.89;65.03
75717;BME280;64333;50.138;14.332;2022-12-29T01:02:44;97794.50;;;6.98;64.54
75717;BME280;64333;50.138;14.332;2022-12-29T01:05:09;97786.84;;;6.96;63.59
75717;BME280;64333;50.138;14.332;2022-12-29T01:07:34;97787.25;;;7.09;63.47
75717;BME280;64333;50.138;14.332;2022-12-29T01:10:00;97793.16;;;7.11;64.04
75717;BME280;64333;50.138;14.332;2022-12-29T01:12:37;97791.28;;;7.14;63.70
75717;BME280;64333;50.138;14.332;2022-12-29T01:15:07;97780.84;;;7.19;62.94
75717;BME280;64333;50.138;14.332;2022-12-29T01:17:33;97779.84;;;7.23;62.64
75717;BME280;64333;50.138;14.332;2022-12-29T01:19:58;97780.03;;;7.18;63.23
75717;BME280;64333;50.138;14.332;2022-12-29T01:22:24;97788.44;;;7.22;62.98
75717;BME280;64333;50.138;14.332;2022-12-29T01:24:49;97780.59;;;7.25;62.29
75717;BME280;64333;50.138;14.332;2022-12-29T01:27:15;97797.88;;;7.21;62.48
75717;BME280;64333;50.138;14.332;2022-12-29T01:29:40;97768.00;;;7.19;62.43
75717;BME280;64333;50.138;14.332;2022-12-29T01:32:05;97785.78;;;7.23;62.56
75717;BME280;64333;50.138;14.332;2022-12-29T01:34:30;97773.84;;;7.22;62.37
75717;BME280;64333;50.138;14.332;2022-12-29T01:36:56;97773.09;;;7.20;62.38
75717;BME280;64333;50.138;14.332;2022-12-29T01:39:21;97774.03;;;7.18;62.29
75717;BME280;64333;50.138;14.332;2022-12-29T01:41:46;97771.53;;;7.16;62.62
75717;BME280;64333;50.138;14.332;2022-12-29T01:44:52;97767.09;;;7.20;62.23
75717;BME280;64333;50.138;14.332;2022-12-29T01:47:39;97773.03;;;7.22;61.96
75717;BME280;64333;50.138;14.332;2022-12-29T01:50:12;97762.88;;;7.19;62.33
75717;BME280;64333;50.138;14.332;2022-12-29T01:52:44;97761.88;;;7.23;61.90
75717;BME280;64333;50.138;14.332;2022-12-29T01:55:12;97755.97;;;7.21;62.34
75717;BME280;64333;50.138;14.332;2022-12-29T01:57:40;97772.91;;;7.25;61.77
75717;BME280;64333;50.138;14.332;2022-12-29T02:00:10;97767.78;;;7.25;61.77
75717;BME280;64333;50.138;14.332;2022-12-29T02:02:36;97753.94;;;7.29;61.37
75717;BME280;64333;50.138;14.332;2022-12-29T02:05:32;97739.50;;;7.25;61.45
75717;BME280;64333;50.138;14.332;2022-12-29T02:07:55;97761.38;;;7.35;60.98
75717;BME280;64333;50.138;14.332;2022-12-29T02:10:23;97758.69;;;7.38;60.83
75717;BME280;64333;50.138;14.332;2022-12-29T02:12:50;97751.75;;;7.40;60.88
75717;BME280;64333;50.138;14.332;2022-12-29T02:15:16;97750.06;;;7.39;60.90
75717;BME280;64333;50.138;14.332;2022-12-29T02:36:05;97753.41;;;7.21;62.29
75717;BME280;64333;50.138;14.332;2022-12-29T02:47:37;97726.69;;;7.25;62.14
75717;BME280;64333;50.138;14.332;2022-12-29T02:50:20;97730.16;;;7.24;62.57
75717;BME280;64333;50.138;14.332;2022-12-29T02:52:51;97719.03;;;7.23;62.67
75717;BME280;64333;50.138;14.332;2022-12-29T02:55:18;97716.28;;;7.28;62.69
75717;BME280;64333;50.138;14.332;2022-12-29T02:57:43;97723.09;;;7.29;62.74
75717;BME280;64333;50.138;14.332;2022-12-29T03:00:10;97716.28;;;7.28;62.69
75717;BME280;64333;50.138;14.332;2022-12-29T03:05:54;97715.41;;;7.29;63.16
75717;BME280;64333;50.138;14.332;2022-12-29T03:08:58;97707.59;;;7.30;63.35
75717;BME280;64333;50.138;14.332;2022-12-29T03:11:33;97710.06;;;7.33;62.76
75717;BME280;64333;50.138;14.332;2022-12-29T03:14:39;97715.78;;;7.40;62.72
75717;BME280;64333;50.138;14.332;2022-12-29T03:20:13;97703.59;;;7.45;62.91
75717;BME280;64333;50.138;14.332;2022-12-29T03:22:41;97704.25;;;7.50;62.90
75717;BME280;64333;50.138;14.332;2022-12-29T03:25:20;97715.28;;;7.52;62.47
75717;BME280;64333;50.138;14.332;2022-12-29T03:27:53;97710.16;;;7.52;62.65
75717;BME280;64333;50.138;14.332;2022-12-29T03:30:21;97717.09;;;7.50;62.58
75717;BME280;64333;50.138;14.332;2022-12-29T03:32:49;97712.19;;;7.44;62.57
75717;BME280;64333;50.138;14.332;2022-12-29T03:35:18;97729.19;;;7.48;62.74
75717;BME280;64333;50.138;14.332;2022-12-29T03:37:55;97726.66;;;7.46;62.64
75717;BME280;64333;50.138;14.332;2022-12-29T03:40:24;97720.91;;;7.40;62.96
75717;BME280;64333;50.138;14.332;2022-12-29T03:42:50;97726.78;;;7.43;63.16
75717;BME280;64333;50.138;14.332;2022-12-29T03:45:16;97717.34;;;7.44;63.43
75717;BME280;64333;50.138;14.332;2022-12-29T03:47:41;97719.06;;;7.43;63.35
75717;BME280;64333;50.138;14.332;2022-12-29T03:50:07;97723.50;;;7.40;62.91
75717;BME280;64333;50.138;14.332;2022-12-29T03:52:33;97716.69;;;7.39;62.81
75717;BME280;64333;50.138;14.332;2022-12-29T03:54:59;97708.97;;;7.39;62.83
75717;BME280;64333;50.138;14.332;2022-12-29T03:57:24;97703.13;;;7.35;62.55
75717;BME280;64333;50.138;14.332;2022-12-29T03:59:49;97702.31;;;7.35;62.79
75717;BME280;64333;50.138;14.332;2022-12-29T04:02:15;97715.16;;;7.35;62.55
75717;BME280;64333;50.138;14.332;2022-12-29T04:04:40;97714.50;;;7.30;62.25
75717;BME280;64333;50.138;14.332;2022-12-29T04:07:06;97704.16;;;7.31;62.16
75717;BME280;64333;50.138;14.332;2022-12-29T04:09:31;97712.81;;;7.29;62.10
75717;BME280;64333;50.138;14.332;2022-12-29T04:11:56;97710.25;;;7.29;61.99
75717;BME280;64333;50.138;14.332;2022-12-29T04:14:22;97704.94;;;7.33;61.88
75717;BME280;64333;50.138;14.332;2022-12-29T04:16:47;97692.84;;;7.35;61.62
75717;BME280;64333;50.138;14.332;2022-12-29T04:19:12;97685.09;;;7.37;61.73
75717;BME280;64333;50.138;14.332;2022-12-29T04:21:38;97684.25;;;7.36;62.06
75717;BME280;64333;50.138;14.332;2022-12-29T04:24:03;97689.97;;;7.43;61.85
75717;BME280;64333;50.138;14.332;2022-12-29T04:26:31;97689.84;;;7.46;62.06
75717;BME280;64333;50.138;14.332;2022-12-29T04:28:56;97695.78;;;7.48;62.23
75717;BME280;64333;50.138;14.332;2022-12-29T04:31:22;97699.88;;;7.52;61.87
75717;BME280;64333;50.138;14.332;2022-12-29T04:33:47;97702.38;;;7.53;62.15
75717;BME280;64333;50.138;14.332;2022-12-29T04:36:12;97700.78;;;7.51;62.23
75717;BME280;64333;50.138;14.332;2022-12-29T04:38:38;97709.25;;;7.53;62.60
75717;BME280;64333;50.138;14.332;2022-12-29T04:41:03;97705.41;;;7.43;62.89
75717;BME280;64333;50.138;14.332;2022-12-29T04:43:29;97698.69;;;7.39;63.04
75717;BME280;64333;50.138;14.332;2022-12-29T04:45:54;97703.06;;;7.37;64.54
75717;BME280;64333;50.138;14.332;2022-12-29T04:48:20;97693.25;;;7.26;64.69
75717;BME280;64333;50.138;14.332;2022-12-29T04:50:48;97698.56;;;7.22;64.86
75717;BME280;64333;50.138;14.332;2022-12-29T04:53:13;97704.69;;;7.18;64.95
75717;BME280;64333;50.138;14.332;2022-12-29T04:55:39;97699.69;;;7.15;65.28
75717;BME280;64333;50.138;14.332;2022-12-29T04:58:04;97695.63;;;7.09;65.02
75717;BME280;64333;50.138;14.332;2022-12-29T05:00:29;97710.94;;;7.12;65.32
75717;BME280;64333;50.138;14.332;2022-12-29T05:02:54;97707.50;;;7.12;65.23
75717;BME280;64333;50.138;14.332;2022-12-29T05:05:20;97708.28;;;7.14;65.45
75717;BME280;64333;50.138;14.332;2022-12-29T05:07:45;97705.13;;;7.07;66.05
75717;BME280;64333;50.138;14.332;2022-12-29T05:10:11;97709.13;;;7.14;65.46
75717;BME280;64333;50.138;14.332;2022-12-29T05:12:37;97710.69;;;7.18;65.65
75717;BME280;64333;50.138;14.332;2022-12-29T05:15:08;97708.88;;;7.20;65.31
75717;BME280;64333;50.138;14.332;2022-12-29T05:17:34;97706.03;;;7.28;64.41
75717;BME280;64333;50.138;14.332;2022-12-29T05:19:59;97706.78;;;7.30;64.26
75717;BME280;64333;50.138;14.332;2022-12-29T05:22:25;97699.78;;;7.33;64.14
75717;BME280;64333;50.138;14.332;2022-12-29T05:24:50;97707.38;;;7.36;63.63
75717;BME280;64333;50.138;14.332;2022-12-29T05:27:16;97697.03;;;7.38;63.43
75717;BME280;64333;50.138;14.332;2022-12-29T05:29:41;97700.25;;;7.43;63.35
75717;BME280;64333;50.138;14.332;2022-12-29T05:32:07;97692.59;;;7.41;63.45
75717;BME280;64333;50.138;14.332;2022-12-29T05:34:32;97703.84;;;7.39;63.53
75717;BME280;64333;50.138;14.332;2022-12-29T05:36:57;97691.69;;;7.42;63.51
75717;BME280;64333;50.138;14.332;2022-12-29T05:39:23;97689.84;;;7.46;63.13
75717;BME280;64333;50.138;14.332;2022-12-29T05:41:48;97678.94;;;7.41;63.29
75717;BME280;64333;50.138;14.332;2022-12-29T05:44:14;97671.94;;;7.44;63.66
75717;BME280;64333;50.138;14.332;2022-12-29T05:46:39;97676.94;;;7.47;63.60
75717;BME280;64333;50.138;14.332;2022-12-29T05:49:05;97672.66;;;7.48;63.37
75717;BME280;64333;50.138;14.332;2022-12-29T05:51:31;97680.03;;;7.55;63.21
75717;BME280;64333;50.138;14.332;2022-12-29T05:53:56;97672.97;;;7.60;63.02
75717;BME280;64333;50.138;14.332;2022-12-29T05:56:22;97675.59;;;7.59;62.94
75717;BME280;64333;50.138;14.332;2022-12-29T05:58:47;97681.34;;;7.65;63.00
75717;BME280;64333;50.138;14.332;2022-12-29T06:01:13;97682.16;;;7.66;63.12
75717;BME280;64333;50.138;14.332;2022-12-29T06:03:38;97671.16;;;7.62;63.66
75717;BME280;64333;50.138;14.332;2022-12-29T06:06:04;97664.31;;;7.63;63.49
75717;BME280;64333;50.138;14.332;2022-12-29T06:08:29;97670.84;;;7.70;63.50
75717;BME280;64333;50.138;14.332;2022-12-29T06:10:54;97678.16;;;7.79;63.65
75717;BME280;64333;50.138;14.332;2022-12-29T06:13:20;97649.81;;;7.80;63.24
75717;BME280;64333;50.138;14.332;2022-12-29T06:15:48;97677.13;;;8.03;63.13
75717;BME280;64333;50.138;14.332;2022-12-29T06:18:13;97679.28;;;8.12;62.47
75717;BME280;64333;50.138;14.332;2022-12-29T06:20:39;97661.88;;;8.18;62.59
75717;BME280;64333;50.138;14.332;2022-12-29T06:23:05;97668.66;;;8.21;62.38
75717;BME280;64333;50.138;14.332;2022-12-29T06:25:30;97670.72;;;8.31;62.45
75717;BME280;64333;50.138;14.332;2022-12-29T06:27:57;97668.91;;;8.33;62.27
75717;BME280;64333;50.138;14.332;2022-12-29T06:30:23;97665.78;;;8.27;62.47
75717;BME280;64333;50.138;14.332;2022-12-29T06:32:48;97656.47;;;8.24;62.84
75717;BME280;64333;50.138;14.332;2022-12-29T06:35:13;97661.81;;;8.20;63.33
75717;BME280;64333;50.138;14.332;2022-12-29T06:37:39;97668.78;;;8.16;63.19
75717;BME280;64333;50.138;14.332;2022-12-29T06:40:05;97675.03;;;8.11;63.43
75717;BME280;64333;50.138;14.332;2022-12-29T06:42:30;97674.91;;;8.14;63.28
75717;BME280;64333;50.138;14.332;2022-12-29T06:44:56;97669.84;;;8.12;63.14
75717;BME280;64333;50.138;14.332;2022-12-29T06:47:24;97674.84;;;8.15;63.49
75717;BME280;64333;50.138;14.332;2022-12-29T06:49:49;97675.81;;;8.13;63.78
75717;BME280;64333;50.138;14.332;2022-12-29T06:52:15;97675.31;;;8.05;64.69
75717;BME280;64333;50.138;14.332;2022-12-29T06:54:40;97683.09;;;8.03;64.54
75717;BME280;64333;50.138;14.332;2022-12-29T06:57:05;97679.69;;;8.03;64.40
75717;BME280;64333;50.138;14.332;2022-12-29T06:59:31;97682.47;;;7.98;65.02
75717;BME280;64333;50.138;14.332;2022-12-29T07:01:56;97686.66;;;8.01;65.45
75717;BME280;64333;50.138;14.332;2022-12-29T07:04:22;97694.53;;;7.96;66.02
75717;BME280;64333;50.138;14.332;2022-12-29T07:06:47;97685.22;;;7.94;66.01
75717;BME280;64333;50.138;14.332;2022-12-29T07:09:12;97702.44;;;8.12;65.53
75717;BME280;64333;50.138;14.332;2022-12-29T07:11:38;97698.19;;;8.31;63.88
75717;BME280;64333;50.138;14.332;2022-12-29T07:14:03;97699.31;;;8.62;63.06
75717;BME280;64333;50.138;14.332;2022-12-29T07:16:29;97680.41;;;8.82;61.27
75717;BME280;64333;50.138;14.332;2022-12-29T07:18:56;97695.25;;;9.12;61.11
75717;BME280;64333;50.138;14.332;2022-12-29T07:21:21;97702.91;;;9.14;61.28
75717;BME280;64333;50.138;14.332;2022-12-29T07:23:47;97701.91;;;9.16;60.95
75717;BME280;64333;50.138;14.332;2022-12-29T07:26:13;97697.59;;;9.17;60.97
75717;BME280;64333;50.138;14.332;2022-12-29T07:28:39;97690.72;;;9.17;61.19
75717;BME280;64333;50.138;14.332;2022-12-29T07:31:13;97697.78;;;9.31;60.31
75717;BME280;64333;50.138;14.332;2022-12-29T07:33:39;97682.09;;;9.35;59.42
75717;BME280;64333;50.138;14.332;2022-12-29T07:36:05;97682.63;;;9.42;59.61
75717;BME280;64333;50.138;14.332;2022-12-29T07:38:30;97687.69;;;9.43;59.67
75717;BME280;64333;50.138;14.332;2022-12-29T07:40:57;97680.97;;;9.41;59.64
75717;BME280;64333;50.138;14.332;2022-12-29T07:43:23;97679.38;;;9.38;59.67
75717;BME280;64333;50.138;14.332;2022-12-29T07:45:48;97675.94;;;9.38;59.88
75717;BME280;64333;50.138;14.332;2022-12-29T07:48:14;97673.97;;;9.26;59.74
75717;BME280;64333;50.138;14.332;2022-12-29T07:50:39;97681.00;;;9.22;59.83
75717;BME280;64333;50.138;14.332;2022-12-29T07:53:04;97682.81;;;9.20;60.32
75717;BME280;64333;50.138;14.332;2022-12-29T07:55:30;97682.31;;;9.14;60.82
75717;BME280;64333;50.138;14.332;2022-12-29T07:57:56;97691.06;;;9.10;60.95
75717;BME280;64333;50.138;14.332;2022-12-29T08:00:22;97701.31;;;9.28;59.92
75717;BME280;64333;50.138;14.332;2022-12-29T08:02:47;97700.97;;;9.53;58.75
75717;BME280;64333;50.138;14.332;2022-12-29T08:05:13;97704.41;;;9.70;58.01
75717;BME280;64333;50.138;14.332;2022-12-29T08:07:38;97707.13;;;9.84;57.08
75717;BME280;64333;50.138;14.332;2022-12-29T08:10:04;97701.44;;;9.95;57.02
75717;BME280;64333;50.138;14.332;2022-12-29T08:12:30;97697.78;;;9.99;57.06
75717;BME280;64333;50.138;14.332;2022-12-29T08:14:55;97691.88;;;10.14;56.39
75717;BME280;64333;50.138;14.332;2022-12-29T08:17:20;97691.72;;;10.17;56.20
75717;BME280;64333;50.138;14.332;2022-12-29T08:19:46;97674.81;;;10.11;56.01
75717;BME280;64333;50.138;14.332;2022-12-29T08:22:13;97676.59;;;10.09;57.02
75717;BME280;64333;50.138;14.332;2022-12-29T08:24:39;97674.13;;;10.08;56.88
75717;BME280;64333;50.138;14.332;2022-12-29T08:27:04;97691.22;;;10.10;57.02
75717;BME280;64333;50.138;14.332;2022-12-29T08:29:30;97681.78;;;10.09;56.75
75717;BME280;64333;50.138;14.332;2022-12-29T08:31:55;97683.47;;;10.10;56.82
75717;BME280;64333;50.138;14.332;2022-12-29T08:34:20;97698.59;;;10.16;57.12
75717;BME280;64333;50.138;14.332;2022-12-29T08:36:46;97703.91;;;10.30;57.17
75717;BME280;64333;50.138;14.332;2022-12-29T08:39:11;97707.00;;;10.37;56.14
75717;BME280;64333;50.138;14.332;2022-12-29T08:41:36;97706.69;;;10.43;55.57
75717;BME280;64333;50.138;14.332;2022-12-29T08:44:02;97705.50;;;10.48;55.54
75717;BME280;64333;50.138;14.332;2022-12-29T08:46:28;97709.53;;;10.54;55.53
75717;BME280;64333;50.138;14.332;2022-12-29T08:48:54;97696.69;;;10.52;55.58
75717;BME280;64333;50.138;14.332;2022-12-29T08:51:19;97706.38;;;10.49;56.75
75717;BME280;64333;50.138;14.332;2022-12-29T08:53:44;97708.88;;;10.50;56.57
75717;BME280;64333;50.138;14.332;2022-12-29T08:56:10;97709.69;;;10.51;56.57
75717;BME280;64333;50.138;14.332;2022-12-29T08:58:36;97703.19;;;10.44;57.89
75717;BME280;64333;50.138;14.332;2022-12-29T09:01:02;97715.69;;;10.51;57.65
75717;BME280;64333;50.138;14.332;2022-12-29T09:03:28;97724.84;;;10.57;57.21
75717;BME280;64333;50.138;14.332;2022-12-29T09:05:54;97706.56;;;10.77;56.31
75717;BME280;64333;50.138;14.332;2022-12-29T09:08:20;97713.25;;;10.81;55.44
75717;BME280;64333;50.138;14.332;2022-12-29T09:10:45;97722.56;;;10.98;56.08
75717;BME280;64333;50.138;14.332;2022-12-29T09:13:12;97709.91;;;11.09;56.30
75717;BME280;64333;50.138;14.332;2022-12-29T09:15:38;97720.88;;;11.28;54.83
75717;BME280;64333;50.138;14.332;2022-12-29T09:18:04;97722.63;;;11.28;54.53
75717;BME280;64333;50.138;14.332;2022-12-29T09:20:30;97724.06;;;11.18;54.95
75717;BME280;64333;50.138;14.332;2022-12-29T09:22:55;97722.81;;;11.25;54.09
75717;BME280;64333;50.138;14.332;2022-12-29T09:25:21;97716.13;;;11.21;55.77
75717;BME280;64333;50.138;14.332;2022-12-29T09:27:49;97719.38;;;11.24;54.61
75717;BME280;64333;50.138;14.332;2022-12-29T09:30:15;97717.56;;;11.26;55.93
75717;BME280;64333;50.138;14.332;2022-12-29T09:32:40;97704.69;;;11.40;54.39
75717;BME280;64333;50.138;14.332;2022-12-29T09:35:06;97706.19;;;11.44;54.45
75717;BME280;64333;50.138;14.332;2022-12-29T09:37:32;97707.34;;;11.54;54.44
75717;BME280;64333;50.138;14.332;2022-12-29T09:39:57;97713.13;;;11.44;54.56
75717;BME280;64333;50.138;14.332;2022-12-29T09:42:39;97702.50;;;11.48;54.06
75717;BME280;64333;50.138;14.332;2022-12-29T09:47:50;97700.00;;;11.62;54.01
75717;BME280;64333;50.138;14.332;2022-12-29T09:50:37;97698.66;;;11.71;53.05
75717;BME280;64333;50.138;14.332;2022-12-29T09:53:13;97701.63;;;11.79;53.06
75717;BME280;64333;50.138;14.332;2022-12-29T09:55:49;97695.81;;;11.89;53.35
75717;BME280;64333;50.138;14.332;2022-12-29T09:58:21;97697.50;;;12.04;52.24
75717;BME280;64333;50.138;14.332;2022-12-29T10:00:59;97677.94;;;12.28;51.92
75717;BME280;64333;50.138;14.332;2022-12-29T10:06:13;97681.47;;;12.82;49.57
75717;BME280;64333;50.138;14.332;2022-12-29T10:08:57;97668.31;;;13.39;49.24
75717;BME280;64333;50.138;14.332;2022-12-29T10:24:52;97664.22;;;13.35;48.16
75717;BME280;64333;50.138;14.332;2022-12-29T10:27:20;97672.41;;;13.29;47.14
75717;BME280;64333;50.138;14.332;2022-12-29T10:29:52;97672.66;;;13.39;47.17
75717;BME280;64333;50.138;14.332;2022-12-29T10:32:31;97665.34;;;13.31;47.42
75717;BME280;64333;50.138;14.332;2022-12-29T10:35:04;97664.47;;;13.45;47.79
75717;BME280;64333;50.138;14.332;2022-12-29T10:40:46;97657.47;;;13.33;47.66
75717;BME280;64333;50.138;14.332;2022-12-29T10:43:25;97654.78;;;13.34;47.12
75717;BME280;64333;50.138;14.332;2022-12-29T10:46:33;97648.13;;;13.30;47.98
75717;BME280;64333;50.138;14.332;2022-12-29T10:49:00;97638.41;;;13.07;48.42
75717;BME280;64333;50.138;14.332;2022-12-29T10:51:33;97627.59;;;13.27;48.08
75717;BME280;64333;50.138;14.332;2022-12-29T10:54:12;97612.41;;;13.09;48.56
75717;BME280;64333;50.138;14.332;2022-12-29T10:56:51;97616.19;;;13.03;48.85
75717;BME280;64333;50.138;14.332;2022-12-29T10:59:25;97614.56;;;13.15;49.91
75717;BME280;64333;50.138;14.332;2022-12-29T11:07:39;97600.94;;;12.99;51.03
75717;BME280;64333;50.138;14.332;2022-12-29T11:10:31;97590.19;;;13.05;50.68
75717;BME280;64333;50.138;14.332;2022-12-29T11:13:12;97584.75;;;12.95;50.69
75717;BME280;64333;50.138;14.332;2022-12-29T11:15:49;97597.34;;;12.87;50.37
75717;BME280;64333;50.138;14.332;2022-12-29T11:18:30;97587.16;;;12.84;50.52
75717;BME280;64333;50.138;14.332;2022-12-29T11:20:59;97587.38;;;12.81;51.06
75717;BME280;64333;50.138;14.332;2022-12-29T11:23:37;97579.94;;;12.89;50.14
75717;BME280;64333;50.138;14.332;2022-12-29T11:26:18;97581.59;;;12.90;50.23
75717;BME280;64333;50.138;14.332;2022-12-29T11:28:47;97578.25;;;13.02;50.37
75717;BME280;64333;50.138;14.332;2022-12-29T11:31:16;97586.03;;;13.02;50.06
75717;BME280;64333;50.138;14.332;2022-12-29T11:33:42;97584.50;;;13.12;49.77
75717;BME280;64333;50.138;14.332;2022-12-29T11:36:14;97593.19;;;13.11;49.86
75717;BME280;64333;50.138;14.332;2022-12-29T11:38:52;97581.31;;;13.21;50.25
75717;BME280;64333;50.138;14.332;2022-12-29T11:41:22;97606.22;;;13.24;49.91
75717;BME280;64333;50.138;14.332;2022-12-29T11:43:49;97595.00;;;13.23;50.04
75717;BME280;64333;50.138;14.332;2022-12-29T11:46:18;97597.66;;;13.09;50.58
75717;BME280;64333;50.138;14.332;2022-12-29T11:48:46;97584.00;;;12.93;50.76
75717;BME280;64333;50.138;14.332;2022-12-29T11:51:21;97601.34;;;13.05;51.31
75717;BME280;64333;50.138;14.332;2022-12-29T11:53:51;97589.88;;;13.09;50.89
75717;BME280;64333;50.138;14.332;2022-12-29T11:56:17;97601.44;;;13.30;50.18
75717;BME280;64333;50.138;14.332;2022-12-29T11:58:45;97610.00;;;13.57;49.68
75717;BME280;64333;50.138;14.332;2022-12-29T12:01:34;97583.84;;;13.73;49.32
75717;BME280;64333;50.138;14.332;2022-12-29T12:04:11;97596.75;;;13.74;49.31
75717;BME280;64333;50.138;14.332;2022-12-29T12:06:44;97604.94;;;13.56;49.89
75717;BME280;64333;50.138;14.332;2022-12-29T12:09:19;97603.38;;;13.53;50.17
75717;BME280;64333;50.138;14.332;2022-12-29T12:11:51;97596.28;;;13.43;50.77
75717;BME280;64333;50.138;14.332;2022-12-29T12:14:28;97598.97;;;13.41;50.83
75717;BME280;64333;50.138;14.332;2022-12-29T12:17:00;97609.53;;;13.26;51.41
75717;BME280;64333;50.138;14.332;2022-12-29T12:19:37;97599.84;;;13.15;51.75
75717;BME280;64333;50.138;14.332;2022-12-29T12:22:13;97600.19;;;13.23;51.63
75717;BME280;64333;50.138;14.332;2022-12-29T12:24:49;97602.59;;;13.26;51.78
75717;BME280;64333;50.138;14.332;2022-12-29T12:27:26;97580.22;;;13.11;51.69
75717;BME280;64333;50.138;14.332;2022-12-29T12:30:04;97584.16;;;13.04;52.99
75717;BME280;64333;50.138;14.332;2022-12-29T12:35:36;97589.34;;;12.90;53.44
75717;BME280;64333;50.138;14.332;2022-12-29T12:43:46;97577.44;;;12.88;53.87
75717;BME280;64333;50.138;14.332;2022-12-29T12:46:49;97568.28;;;12.82;54.03
75717;BME280;64333;50.138;14.332;2022-12-29T12:55:46;97564.22;;;12.78;54.50
75717;BME280;64333;50.138;14.332;2022-12-29T12:59:22;97571.81;;;12.81;54.21
75717;BME280;64333;50.138;14.332;2022-12-29T13:05:04;97572.56;;;13.10;53.92
75717;BME280;64333;50.138;14.332;2022-12-29T13:15:37;97578.91;;;13.18;53.37
75717;BME280;64333;50.138;14.332;2022-12-29T13:23:40;97568.53;;;15.03;48.03
75717;BME280;64333;50.138;14.332;2022-12-29T13:26:43;97576.59;;;15.69;45.87
75717;BME280;64333;50.138;14.332;2022-12-29T13:29:15;97561.00;;;15.34;46.01
75717;BME280;64333;50.138;14.332;2022-12-29T13:37:10;97582.00;;;15.08;47.64
75717;BME280;64333;50.138;14.332;2022-12-29T13:39:41;97586.00;;;14.77;48.43
75717;BME280;64333;50.138;14.332;2022-12-29T13:42:08;97582.78;;;14.97;48.75
75717;BME280;64333;50.138;14.332;2022-12-29T13:44:47;97599.34;;;14.96;48.67
75717;BME280;64333;50.138;14.332;2022-12-29T13:47:36;97587.03;;;14.75;49.70
75717;BME280;64333;50.138;14.332;2022-12-29T13:50:05;97592.66;;;14.45;51.14
75717;BME280;64333;50.138;14.332;2022-12-29T14:03:47;97606.28;;;13.74;52.46
75717;BME280;64333;50.138;14.332;2022-12-29T14:06:25;97605.22;;;13.51;53.33
75717;BME280;64333;50.138;14.332;2022-12-29T14:08:54;97624.44;;;13.22;53.79
75717;BME280;64333;50.138;14.332;2022-12-29T14:11:23;97605.34;;;13.11;53.96
75717;BME280;64333;50.138;14.332;2022-12-29T14:13:50;97578.97;;;13.04;54.18
75717;BME280;64333;50.138;14.332;2022-12-29T14:16:42;97602.94;;;12.94;54.87
75717;BME280;64333;50.138;14.332;2022-12-29T14:19:19;97598.47;;;12.83;55.68
75717;BME280;64333;50.138;14.332;2022-12-29T14:22:02;97601.00;;;12.71;55.99
75717;BME280;64333;50.138;14.332;2022-12-29T14:26:56;97604.81;;;12.51;56.72
75717;BME280;64333;50.138;14.332;2022-12-29T14:31:50;97599.53;;;12.26;56.55
75717;BME280;64333;50.138;14.332;2022-12-29T14:34:27;97604.44;;;12.17;57.55
75717;BME280;64333;50.138;14.332;2022-12-29T14:36:54;97609.13;;;12.10;57.22
75717;BME280;64333;50.138;14.332;2022-12-29T14:44:48;97610.88;;;11.82;57.62
75717;BME280;64333;50.138;14.332;2022-12-29T14:49:55;97616.44;;;11.76;58.07
75717;BME280;64333;50.138;14.332;2022-12-29T14:52:25;97614.09;;;11.71;58.75
75717;BME280;64333;50.138;14.332;2022-12-29T14:55:28;97609.53;;;11.61;59.73
75717;BME280;64333;50.138;14.332;2022-12-29T14:57:50;97619.03;;;11.46;59.15
75717;BME280;64333;50.138;14.332;2022-12-29T15:00:23;97623.63;;;11.41;59.50
75717;BME280;64333;50.138;14.332;2022-12-29T15:03:14;97633.03;;;11.42;59.40
75717;BME280;64333;50.138;14.332;2022-12-29T15:08:29;97616.91;;;11.23;60.68
75717;BME280;64333;50.138;14.332;2022-12-29T15:11:00;97623.69;;;11.10;60.33
75717;BME280;64333;50.138;14.332;2022-12-29T15:13:38;97628.47;;;11.02;61.08
75717;BME280;64333;50.138;14.332;2022-12-29T15:16:05;97627.88;;;10.97;61.46